sensor_id;sensor_type;location;lat;lon;timestamp;P1;durP1;ratioP1;P2;durP2;ratioP2
18340;SDS011;9296;48.084;16.352;2023-05-07T00:01:22;3.53;;;2.72;;
18340;SDS011;9296;48.084;16.352;2023-05-07T00:03:49;2.70;;;2.50;;
18340;SDS011;9296;48.084;16.352;2023-05-07T00:06:17;2.47;;;2.28;;
18340;SDS011;9296;48.084;16.352;2023-05-07T00:08:45;11.00;;;2.63;;
18340;SDS011;9296;48.084;16.352;2023-05-07T00:11:12;3.38;;;2.70;;
18340;SDS011;9296;48.084;16.352;2023-05-07T00:13:39;3.58;;;2.67;;
18340;SDS011;9296;48.084;16.352;2023-05-07T00:16:07;3.47;;;2.58;;
18340;SDS011;9296;48.084;16.352;2023-05-07T00:18:34;3.17;;;2.88;;
18340;SDS011;9296;48.084;16.352;2023-05-07T00:21:01;2.97;;;2.50;;
18340;SDS011;9296;48.084;16.352;2023-05-07T00:23:29;3.33;;;2.72;;
18340;SDS011;9296;48.084;16.352;2023-05-07T00:25:57;5.03;;;2.50;;
18340;SDS011;9296;48.084;16.352;2023-05-07T00:28:24;4.07;;;2.70;;
18340;SDS011;9296;48.084;16.352;2023-05-07T00:30:51;2.58;;;2.38;;
18340;SDS011;9296;48.084;16.352;2023-05-07T00:33:19;2.58;;;2.22;;
18340;SDS011;9296;48.084;16.352;2023-05-07T00:35:47;2.65;;;2.33;;
18340;SDS011;9296;48.084;16.352;2023-05-07T00:38:14;2.90;;;2.35;;
18340;SDS011;9296;48.084;16.352;2023-05-07T00:40:42;4.05;;;2.20;;
18340;SDS011;9296;48.084;16.352;2023-05-07T00:43:10;2.88;;;2.40;;
18340;SDS011;9296;48.084;16.352;2023-05-07T00:45:37;2.97;;;2.30;;
18340;SDS011;9296;48.084;16.352;2023-05-07T00:48:05;3.50;;;2.50;;
18340;SDS011;9296;48.084;16.352;2023-05-07T00:50:32;3.33;;;2.50;;
18340;SDS011;9296;48.084;16.352;2023-05-07T00:52:59;2.65;;;2.30;;
18340;SDS011;9296;48.084;16.352;2023-05-07T00:55:27;2.35;;;2.15;;
18340;SDS011;9296;48.084;16.352;2023-05-07T00:57:55;4.30;;;2.40;;
18340;SDS011;9296;48.084;16.352;2023-05-07T01:00:23;2.55;;;2.25;;
18340;SDS011;9296;48.084;16.352;2023-05-07T01:02:50;3.05;;;2.00;;
18340;SDS011;9296;48.084;16.352;2023-05-07T01:05:19;4.07;;;2.33;;
18340;SDS011;9296;48.084;16.352;2023-05-07T01:07:48;2.47;;;2.05;;
18340;SDS011;9296;48.084;16.352;2023-05-07T01:10:16;3.30;;;2.60;;
18340;SDS011;9296;48.084;16.352;2023-05-07T01:12:44;3.25;;;2.35;;
18340;SDS011;9296;48.084;16.352;2023-05-07T01:18:17;2.80;;;2.33;;
18340;SDS011;9296;48.084;16.352;2023-05-07T01:20:45;2.80;;;2.60;;
18340;SDS011;9296;48.084;16.352;2023-05-07T01:23:14;3.75;;;2.60;;
18340;SDS011;9296;48.084;16.352;2023-05-07T01:25:42;2.80;;;2.50;;
18340;SDS011;9296;48.084;16.352;2023-05-07T01:28:09;2.65;;;2.42;;
18340;SDS011;9296;48.084;16.352;2023-05-07T01:33:40;4.20;;;2.72;;
18340;SDS011;9296;48.084;16.352;2023-05-07T01:36:08;2.90;;;2.38;;
18340;SDS011;9296;48.084;16.352;2023-05-07T01:38:37;3.53;;;2.40;;
18340;SDS011;9296;48.084;16.352;2023-05-07T01:41:05;3.67;;;3.00;;
18340;SDS011;9296;48.084;16.352;2023-05-07T01:49:40;3.95;;;3.05;;
18340;SDS011;9296;48.084;16.352;2023-05-07T01:52:08;3.00;;;2.70;;
18340;SDS011;9296;48.084;16.352;2023-05-07T01:54:36;3.10;;;2.63;;
18340;SDS011;9296;48.084;16.352;2023-05-07T01:57:03;3.58;;;2.63;;
18340;SDS011;9296;48.084;16.352;2023-05-07T01:59:30;5.05;;;2.80;;
18340;SDS011;9296;48.084;16.352;2023-05-07T02:01:58;3.78;;;2.78;;
18340;SDS011;9296;48.084;16.352;2023-05-07T02:04:25;3.25;;;2.92;;
18340;SDS011;9296;48.084;16.352;2023-05-07T02:06:52;3.38;;;3.08;;
18340;SDS011;9296;48.084;16.352;2023-05-07T02:09:20;3.40;;;2.80;;
18340;SDS011;9296;48.084;16.352;2023-05-07T02:11:50;3.38;;;2.80;;
18340;SDS011;9296;48.084;16.352;2023-05-07T02:14:17;4.20;;;3.05;;
18340;SDS011;9296;48.084;16.352;2023-05-07T02:16:45;3.28;;;2.85;;
18340;SDS011;9296;48.084;16.352;2023-05-07T02:19:12;3.72;;;2.63;;
18340;SDS011;9296;48.084;16.352;2023-05-07T02:21:39;2.75;;;2.50;;
18340;SDS011;9296;48.084;16.352;2023-05-07T02:24:06;3.75;;;2.65;;
18340;SDS011;9296;48.084;16.352;2023-05-07T02:26:34;3.88;;;2.67;;
18340;SDS011;9296;48.084;16.352;2023-05-07T02:29:02;3.05;;;2.75;;
18340;SDS011;9296;48.084;16.352;2023-05-07T02:31:29;6.35;;;3.35;;
18340;SDS011;9296;48.084;16.352;2023-05-07T02:33:58;4.90;;;2.85;;
18340;SDS011;9296;48.084;16.352;2023-05-07T02:36:26;2.90;;;2.42;;
18340;SDS011;9296;48.084;16.352;2023-05-07T02:38:53;3.25;;;2.70;;
18340;SDS011;9296;48.084;16.352;2023-05-07T02:41:21;3.00;;;2.70;;
18340;SDS011;9296;48.084;16.352;2023-05-07T02:43:48;3.20;;;2.78;;
18340;SDS011;9296;48.084;16.352;2023-05-07T02:46:16;2.67;;;2.45;;
18340;SDS011;9296;48.084;16.352;2023-05-07T02:48:44;3.33;;;2.42;;
18340;SDS011;9296;48.084;16.352;2023-05-07T02:51:11;3.03;;;2.72;;
18340;SDS011;9296;48.084;16.352;2023-05-07T02:53:38;6.43;;;2.90;;
18340;SDS011;9296;48.084;16.352;2023-05-07T02:56:06;3.05;;;2.75;;
18340;SDS011;9296;48.084;16.352;2023-05-07T02:58:33;4.15;;;2.60;;
18340;SDS011;9296;48.084;16.352;2023-05-07T03:04:23;5.57;;;3.17;;
18340;SDS011;9296;48.084;16.352;2023-05-07T03:06:50;4.45;;;3.05;;
18340;SDS011;9296;48.084;16.352;2023-05-07T03:09:17;4.00;;;3.35;;
18340;SDS011;9296;48.084;16.352;2023-05-07T03:11:44;4.50;;;3.38;;
18340;SDS011;9296;48.084;16.352;2023-05-07T03:14:30;4.80;;;3.45;;
18340;SDS011;9296;48.084;16.352;2023-05-07T03:16:57;4.55;;;3.35;;
18340;SDS011;9296;48.084;16.352;2023-05-07T03:19:25;5.47;;;3.53;;
18340;SDS011;9296;48.084;16.352;2023-05-07T03:21:53;4.25;;;3.42;;
18340;SDS011;9296;48.084;16.352;2023-05-07T03:24:20;5.18;;;3.50;;
18340;SDS011;9296;48.084;16.352;2023-05-07T03:26:47;5.95;;;3.45;;
18340;SDS011;9296;48.084;16.352;2023-05-07T03:29:14;3.78;;;3.28;;
18340;SDS011;9296;48.084;16.352;2023-05-07T03:31:42;5.68;;;3.50;;
18340;SDS011;9296;48.084;16.352;2023-05-07T03:34:09;4.75;;;3.67;;
18340;SDS011;9296;48.084;16.352;2023-05-07T03:36:37;4.13;;;3.42;;
18340;SDS011;9296;48.084;16.352;2023-05-07T03:39:05;4.75;;;3.65;;
18340;SDS011;9296;48.084;16.352;2023-05-07T03:41:32;6.40;;;3.40;;
18340;SDS011;9296;48.084;16.352;2023-05-07T03:47:03;5.30;;;4.00;;
18340;SDS011;9296;48.084;16.352;2023-05-07T03:49:30;5.55;;;3.85;;
18340;SDS011;9296;48.084;16.352;2023-05-07T03:51:59;5.75;;;4.13;;
18340;SDS011;9296;48.084;16.352;2023-05-07T03:54:26;5.47;;;3.80;;
18340;SDS011;9296;48.084;16.352;2023-05-07T03:56:53;4.55;;;4.05;;
18340;SDS011;9296;48.084;16.352;2023-05-07T03:59:20;5.00;;;4.18;;
18340;SDS011;9296;48.084;16.352;2023-05-07T04:01:47;4.63;;;4.10;;
18340;SDS011;9296;48.084;16.352;2023-05-07T04:04:15;5.22;;;4.68;;
18340;SDS011;9296;48.084;16.352;2023-05-07T04:06:42;5.90;;;4.57;;
18340;SDS011;9296;48.084;16.352;2023-05-07T04:09:11;8.18;;;4.85;;
18340;SDS011;9296;48.084;16.352;2023-05-07T04:11:39;5.90;;;4.60;;
18340;SDS011;9296;48.084;16.352;2023-05-07T04:14:06;6.70;;;5.18;;
18340;SDS011;9296;48.084;16.352;2023-05-07T04:16:34;6.00;;;4.80;;
18340;SDS011;9296;48.084;16.352;2023-05-07T04:19:01;7.53;;;5.43;;
18340;SDS011;9296;48.084;16.352;2023-05-07T04:21:28;6.20;;;5.20;;
18340;SDS011;9296;48.084;16.352;2023-05-07T04:23:55;7.97;;;5.40;;
18340;SDS011;9296;48.084;16.352;2023-05-07T04:26:24;7.90;;;5.45;;
18340;SDS011;9296;48.084;16.352;2023-05-07T04:28:51;6.63;;;5.68;;
18340;SDS011;9296;48.084;16.352;2023-05-07T04:31:18;8.88;;;5.95;;
18340;SDS011;9296;48.084;16.352;2023-05-07T04:33:46;6.68;;;5.68;;
18340;SDS011;9296;48.084;16.352;2023-05-07T04:36:13;7.65;;;6.13;;
18340;SDS011;9296;48.084;16.352;2023-05-07T04:38:40;14.45;;;7.13;;
18340;SDS011;9296;48.084;16.352;2023-05-07T04:41:08;8.77;;;6.50;;
18340;SDS011;9296;48.084;16.352;2023-05-07T04:43:37;9.15;;;7.40;;
18340;SDS011;9296;48.084;16.352;2023-05-07T04:49:08;11.00;;;9.00;;
18340;SDS011;9296;48.084;16.352;2023-05-07T04:51:36;11.00;;;8.48;;
18340;SDS011;9296;48.084;16.352;2023-05-07T04:54:03;10.57;;;9.05;;
18340;SDS011;9296;48.084;16.352;2023-05-07T04:56:30;13.73;;;9.55;;
18340;SDS011;9296;48.084;16.352;2023-05-07T04:58:59;12.00;;;9.38;;
18340;SDS011;9296;48.084;16.352;2023-05-07T05:01:26;11.57;;;9.65;;
18340;SDS011;9296;48.084;16.352;2023-05-07T05:03:53;13.18;;;9.40;;
18340;SDS011;9296;48.084;16.352;2023-05-07T05:06:20;13.85;;;9.32;;
18340;SDS011;9296;48.084;16.352;2023-05-07T05:08:48;13.10;;;9.23;;
18340;SDS011;9296;48.084;16.352;2023-05-07T05:11:15;13.68;;;9.13;;
18340;SDS011;9296;48.084;16.352;2023-05-07T05:13:42;11.45;;;9.50;;
18340;SDS011;9296;48.084;16.352;2023-05-07T05:19:14;11.50;;;9.73;;
18340;SDS011;9296;48.084;16.352;2023-05-07T05:21:41;12.05;;;10.13;;
18340;SDS011;9296;48.084;16.352;2023-05-07T05:24:09;12.23;;;9.98;;
18340;SDS011;9296;48.084;16.352;2023-05-07T05:26:36;13.57;;;9.82;;
18340;SDS011;9296;48.084;16.352;2023-05-07T05:35:12;13.75;;;11.00;;
18340;SDS011;9296;48.084;16.352;2023-05-07T05:37:39;13.52;;;11.13;;
18340;SDS011;9296;48.084;16.352;2023-05-07T05:40:07;14.38;;;11.10;;
18340;SDS011;9296;48.084;16.352;2023-05-07T05:42:34;14.90;;;10.80;;
18340;SDS011;9296;48.084;16.352;2023-05-07T05:45:01;15.85;;;11.90;;
18340;SDS011;9296;48.084;16.352;2023-05-07T05:47:29;16.02;;;12.25;;
18340;SDS011;9296;48.084;16.352;2023-05-07T05:49:56;16.40;;;12.68;;
18340;SDS011;9296;48.084;16.352;2023-05-07T05:52:25;17.20;;;12.88;;
18340;SDS011;9296;48.084;16.352;2023-05-07T05:54:53;16.65;;;13.13;;
18340;SDS011;9296;48.084;16.352;2023-05-07T05:57:20;16.95;;;13.27;;
18340;SDS011;9296;48.084;16.352;2023-05-07T06:00:06;18.73;;;14.05;;
18340;SDS011;9296;48.084;16.352;2023-05-07T06:02:33;18.60;;;13.70;;
18340;SDS011;9296;48.084;16.352;2023-05-07T06:05:00;18.48;;;14.13;;
18340;SDS011;9296;48.084;16.352;2023-05-07T06:07:29;17.42;;;14.23;;
18340;SDS011;9296;48.084;16.352;2023-05-07T06:09:56;19.58;;;15.02;;
18340;SDS011;9296;48.084;16.352;2023-05-07T06:12:23;22.38;;;17.65;;
18340;SDS011;9296;48.084;16.352;2023-05-07T06:15:10;25.20;;;18.48;;
18340;SDS011;9296;48.084;16.352;2023-05-07T06:17:37;23.52;;;17.65;;
18340;SDS011;9296;48.084;16.352;2023-05-07T06:20:05;23.75;;;18.65;;
18340;SDS011;9296;48.084;16.352;2023-05-07T06:22:33;24.60;;;19.27;;
18340;SDS011;9296;48.084;16.352;2023-05-07T06:25:00;24.33;;;18.25;;
18340;SDS011;9296;48.084;16.352;2023-05-07T06:27:28;26.10;;;18.88;;
18340;SDS011;9296;48.084;16.352;2023-05-07T06:36:02;24.90;;;19.95;;
18340;SDS011;9296;48.084;16.352;2023-05-07T06:38:30;22.83;;;18.80;;
18340;SDS011;9296;48.084;16.352;2023-05-07T06:40:57;25.05;;;18.58;;
18340;SDS011;9296;48.084;16.352;2023-05-07T06:43:25;23.27;;;18.55;;
18340;SDS011;9296;48.084;16.352;2023-05-07T06:48:55;22.45;;;17.55;;
18340;SDS011;9296;48.084;16.352;2023-05-07T06:51:23;22.52;;;18.42;;
18340;SDS011;9296;48.084;16.352;2023-05-07T06:53:51;23.80;;;17.20;;
18340;SDS011;9296;48.084;16.352;2023-05-07T06:56:19;20.48;;;16.60;;
18340;SDS011;9296;48.084;16.352;2023-05-07T06:58:46;20.65;;;17.42;;
18340;SDS011;9296;48.084;16.352;2023-05-07T07:01:13;20.35;;;17.27;;
18340;SDS011;9296;48.084;16.352;2023-05-07T07:03:40;18.42;;;16.38;;
18340;SDS011;9296;48.084;16.352;2023-05-07T07:06:07;18.70;;;16.70;;
18340;SDS011;9296;48.084;16.352;2023-05-07T07:08:36;19.25;;;17.20;;
18340;SDS011;9296;48.084;16.352;2023-05-07T07:11:05;20.70;;;17.77;;
18340;SDS011;9296;48.084;16.352;2023-05-07T07:13:32;20.02;;;17.90;;
18340;SDS011;9296;48.084;16.352;2023-05-07T07:18:45;19.23;;;17.23;;
18340;SDS011;9296;48.084;16.352;2023-05-07T07:21:12;20.30;;;18.13;;
18340;SDS011;9296;48.084;16.352;2023-05-07T07:23:39;21.23;;;16.95;;
18340;SDS011;9296;48.084;16.352;2023-05-07T07:26:08;20.63;;;17.98;;
18340;SDS011;9296;48.084;16.352;2023-05-07T07:28:41;21.73;;;19.10;;
18340;SDS011;9296;48.084;16.352;2023-05-07T07:31:08;20.75;;;17.92;;
18340;SDS011;9296;48.084;16.352;2023-05-07T07:33:36;23.38;;;18.20;;
18340;SDS011;9296;48.084;16.352;2023-05-07T07:36:04;22.70;;;19.27;;
18340;SDS011;9296;48.084;16.352;2023-05-07T07:38:31;22.40;;;18.98;;
18340;SDS011;9296;48.084;16.352;2023-05-07T07:40:59;20.15;;;17.52;;
18340;SDS011;9296;48.084;16.352;2023-05-07T07:43:27;19.00;;;16.77;;
18340;SDS011;9296;48.084;16.352;2023-05-07T07:45:55;19.63;;;17.13;;
18340;SDS011;9296;48.084;16.352;2023-05-07T07:48:22;19.38;;;17.05;;
18340;SDS011;9296;48.084;16.352;2023-05-07T07:50:49;19.83;;;16.83;;
18340;SDS011;9296;48.084;16.352;2023-05-07T07:53:16;22.73;;;17.77;;
18340;SDS011;9296;48.084;16.352;2023-05-07T07:55:43;21.60;;;17.25;;
18340;SDS011;9296;48.084;16.352;2023-05-07T07:58:11;20.05;;;16.75;;
18340;SDS011;9296;48.084;16.352;2023-05-07T08:00:40;21.58;;;17.90;;
18340;SDS011;9296;48.084;16.352;2023-05-07T08:03:08;23.05;;;17.88;;
18340;SDS011;9296;48.084;16.352;2023-05-07T08:05:36;19.48;;;16.63;;
18340;SDS011;9296;48.084;16.352;2023-05-07T08:08:03;20.33;;;17.13;;
18340;SDS011;9296;48.084;16.352;2023-05-07T08:10:31;18.67;;;16.50;;
18340;SDS011;9296;48.084;16.352;2023-05-07T08:12:59;19.55;;;16.90;;
18340;SDS011;9296;48.084;16.352;2023-05-07T08:18:51;17.73;;;15.30;;
18340;SDS011;9296;48.084;16.352;2023-05-07T08:21:19;20.27;;;15.77;;
18340;SDS011;9296;48.084;16.352;2023-05-07T08:23:46;21.15;;;15.30;;
18340;SDS011;9296;48.084;16.352;2023-05-07T08:26:13;18.52;;;15.20;;
18340;SDS011;9296;48.084;16.352;2023-05-07T08:28:40;16.92;;;14.48;;
18340;SDS011;9296;48.084;16.352;2023-05-07T08:31:08;20.15;;;15.73;;
18340;SDS011;9296;48.084;16.352;2023-05-07T08:33:35;17.30;;;15.05;;
18340;SDS011;9296;48.084;16.352;2023-05-07T08:36:05;18.30;;;15.25;;
18340;SDS011;9296;48.084;16.352;2023-05-07T08:38:32;19.23;;;15.55;;
18340;SDS011;9296;48.084;16.352;2023-05-07T08:40:59;19.98;;;15.35;;
18340;SDS011;9296;48.084;16.352;2023-05-07T08:43:26;19.45;;;15.95;;
18340;SDS011;9296;48.084;16.352;2023-05-07T08:49:00;20.25;;;15.82;;
18340;SDS011;9296;48.084;16.352;2023-05-07T08:51:29;18.70;;;15.98;;
18340;SDS011;9296;48.084;16.352;2023-05-07T08:53:56;17.52;;;15.05;;
18340;SDS011;9296;48.084;16.352;2023-05-07T08:56:24;21.33;;;15.20;;
18340;SDS011;9296;48.084;16.352;2023-05-07T08:58:52;20.10;;;15.48;;
18340;SDS011;9296;48.084;16.352;2023-05-07T09:04:24;18.75;;;14.38;;
18340;SDS011;9296;48.084;16.352;2023-05-07T09:06:53;16.35;;;13.10;;
18340;SDS011;9296;48.084;16.352;2023-05-07T09:09:21;16.35;;;12.90;;
18340;SDS011;9296;48.084;16.352;2023-05-07T09:11:48;17.95;;;13.95;;
18340;SDS011;9296;48.084;16.352;2023-05-07T09:14:24;14.15;;;12.55;;
18340;SDS011;9296;48.084;16.352;2023-05-07T09:17:09;17.02;;;13.90;;
18340;SDS011;9296;48.084;16.352;2023-05-07T09:19:37;16.27;;;13.93;;
18340;SDS011;9296;48.084;16.352;2023-05-07T09:22:05;16.65;;;13.65;;
18340;SDS011;9296;48.084;16.352;2023-05-07T09:24:33;16.08;;;12.73;;
18340;SDS011;9296;48.084;16.352;2023-05-07T09:27:02;15.75;;;13.60;;
18340;SDS011;9296;48.084;16.352;2023-05-07T09:29:30;14.68;;;13.07;;
18340;SDS011;9296;48.084;16.352;2023-05-07T09:32:19;14.77;;;13.18;;
18340;SDS011;9296;48.084;16.352;2023-05-07T09:34:46;15.98;;;13.48;;
18340;SDS011;9296;48.084;16.352;2023-05-07T09:37:14;14.90;;;13.40;;
18340;SDS011;9296;48.084;16.352;2023-05-07T09:39:43;15.48;;;13.77;;
18340;SDS011;9296;48.084;16.352;2023-05-07T09:42:11;16.75;;;13.88;;
18340;SDS011;9296;48.084;16.352;2023-05-07T09:44:39;15.57;;;13.85;;
18340;SDS011;9296;48.084;16.352;2023-05-07T09:50:29;15.57;;;13.27;;
18340;SDS011;9296;48.084;16.352;2023-05-07T09:52:57;14.15;;;12.65;;
18340;SDS011;9296;48.084;16.352;2023-05-07T09:55:24;13.48;;;11.50;;
18340;SDS011;9296;48.084;16.352;2023-05-07T09:57:52;13.93;;;12.43;;
18340;SDS011;9296;48.084;16.352;2023-05-07T10:06:27;13.55;;;11.57;;
18340;SDS011;9296;48.084;16.352;2023-05-07T10:08:56;13.07;;;11.73;;
18340;SDS011;9296;48.084;16.352;2023-05-07T10:11:24;14.68;;;12.25;;
18340;SDS011;9296;48.084;16.352;2023-05-07T10:13:51;13.13;;;11.68;;
18340;SDS011;9296;48.084;16.352;2023-05-07T10:19:22;12.93;;;11.57;;
18340;SDS011;9296;48.084;16.352;2023-05-07T10:21:52;12.48;;;11.18;;
18340;SDS011;9296;48.084;16.352;2023-05-07T10:24:25;12.57;;;11.27;;
18340;SDS011;9296;48.084;16.352;2023-05-07T10:26:53;13.25;;;11.85;;
18340;SDS011;9296;48.084;16.352;2023-05-07T10:29:21;11.98;;;10.77;;
18340;SDS011;9296;48.084;16.352;2023-05-07T10:31:54;12.57;;;11.27;;
18340;SDS011;9296;48.084;16.352;2023-05-07T10:34:23;13.32;;;11.48;;
18340;SDS011;9296;48.084;16.352;2023-05-07T10:36:51;11.90;;;10.70;;
18340;SDS011;9296;48.084;16.352;2023-05-07T10:39:19;11.68;;;10.48;;
18340;SDS011;9296;48.084;16.352;2023-05-07T10:41:47;11.05;;;9.95;;
18340;SDS011;9296;48.084;16.352;2023-05-07T10:44:24;13.18;;;11.23;;
18340;SDS011;9296;48.084;16.352;2023-05-07T10:47:05;12.80;;;11.40;;
18340;SDS011;9296;48.084;16.352;2023-05-07T10:49:34;13.00;;;10.60;;
18340;SDS011;9296;48.084;16.352;2023-05-07T10:54:43;10.73;;;8.90;;
18340;SDS011;9296;48.084;16.352;2023-05-07T10:59:58;11.63;;;10.45;;
18340;SDS011;9296;48.084;16.352;2023-05-07T11:05:29;11.18;;;9.70;;
18340;SDS011;9296;48.084;16.352;2023-05-07T11:07:57;12.40;;;11.10;;
18340;SDS011;9296;48.084;16.352;2023-05-07T11:10:32;12.52;;;10.43;;
18340;SDS011;9296;48.084;16.352;2023-05-07T11:13:14;11.38;;;10.18;;
18340;SDS011;9296;48.084;16.352;2023-05-07T11:19:05;12.65;;;11.07;;
18340;SDS011;9296;48.084;16.352;2023-05-07T11:21:33;12.68;;;11.02;;
18340;SDS011;9296;48.084;16.352;2023-05-07T11:24:01;11.32;;;10.13;;
18340;SDS011;9296;48.084;16.352;2023-05-07T11:26:29;10.70;;;9.60;;
18340;SDS011;9296;48.084;16.352;2023-05-07T11:28:57;11.95;;;10.55;;
18340;SDS011;9296;48.084;16.352;2023-05-07T11:34:48;12.63;;;11.25;;
18340;SDS011;9296;48.084;16.352;2023-05-07T11:37:18;12.15;;;10.85;;
18340;SDS011;9296;48.084;16.352;2023-05-07T11:39:46;12.85;;;10.80;;
18340;SDS011;9296;48.084;16.352;2023-05-07T11:42:24;12.10;;;9.82;;
18340;SDS011;9296;48.084;16.352;2023-05-07T11:44:52;13.30;;;11.05;;
18340;SDS011;9296;48.084;16.352;2023-05-07T11:50:24;11.80;;;10.48;;
18340;SDS011;9296;48.084;16.352;2023-05-07T11:52:51;13.95;;;11.55;;
18340;SDS011;9296;48.084;16.352;2023-05-07T11:55:18;11.30;;;10.07;;
18340;SDS011;9296;48.084;16.352;2023-05-07T11:57:47;13.18;;;10.15;;
18340;SDS011;9296;48.084;16.352;2023-05-07T12:00:15;10.70;;;9.60;;
18340;SDS011;9296;48.084;16.352;2023-05-07T12:03:03;11.43;;;9.65;;
18340;SDS011;9296;48.084;16.352;2023-05-07T12:05:31;11.75;;;10.25;;
18340;SDS011;9296;48.084;16.352;2023-05-07T12:07:58;11.57;;;9.90;;
18340;SDS011;9296;48.084;16.352;2023-05-07T12:10:26;12.65;;;10.40;;
18340;SDS011;9296;48.084;16.352;2023-05-07T12:12:53;10.25;;;9.15;;
18340;SDS011;9296;48.084;16.352;2023-05-07T12:15:22;11.60;;;10.15;;
18340;SDS011;9296;48.084;16.352;2023-05-07T12:17:49;11.10;;;9.88;;
18340;SDS011;9296;48.084;16.352;2023-05-07T12:20:17;11.57;;;9.10;;
18340;SDS011;9296;48.084;16.352;2023-05-07T12:22:46;9.68;;;8.60;;
18340;SDS011;9296;48.084;16.352;2023-05-07T12:25:13;11.35;;;9.55;;
18340;SDS011;9296;48.084;16.352;2023-05-07T12:27:45;9.93;;;8.65;;
18340;SDS011;9296;48.084;16.352;2023-05-07T12:30:18;11.55;;;9.05;;
18340;SDS011;9296;48.084;16.352;2023-05-07T12:33:04;9.65;;;8.65;;
18340;SDS011;9296;48.084;16.352;2023-05-07T12:35:31;11.15;;;9.00;;
18340;SDS011;9296;48.084;16.352;2023-05-07T12:38:00;10.18;;;8.77;;
18340;SDS011;9296;48.084;16.352;2023-05-07T12:40:34;9.40;;;8.18;;
18340;SDS011;9296;48.084;16.352;2023-05-07T12:43:02;10.50;;;8.95;;
18340;SDS011;9296;48.084;16.352;2023-05-07T12:45:29;10.65;;;9.02;;
18340;SDS011;9296;48.084;16.352;2023-05-07T12:48:00;10.25;;;9.00;;
18340;SDS011;9296;48.084;16.352;2023-05-07T12:50:30;9.38;;;8.02;;
18340;SDS011;9296;48.084;16.352;2023-05-07T12:52:58;11.43;;;8.48;;
18340;SDS011;9296;48.084;16.352;2023-05-07T12:55:26;11.15;;;8.70;;
18340;SDS011;9296;48.084;16.352;2023-05-07T12:57:55;10.15;;;8.95;;
18340;SDS011;9296;48.084;16.352;2023-05-07T13:00:33;8.80;;;7.90;;
18340;SDS011;9296;48.084;16.352;2023-05-07T13:06:05;8.23;;;7.13;;
18340;SDS011;9296;48.084;16.352;2023-05-07T13:08:52;8.98;;;8.07;;
18340;SDS011;9296;48.084;16.352;2023-05-07T13:11:21;9.48;;;8.30;;
18340;SDS011;9296;48.084;16.352;2023-05-07T13:13:50;10.25;;;8.23;;
18340;SDS011;9296;48.084;16.352;2023-05-07T13:19:20;9.45;;;8.20;;
18340;SDS011;9296;48.084;16.352;2023-05-07T13:21:47;9.20;;;7.95;;
18340;SDS011;9296;48.084;16.352;2023-05-07T13:24:16;10.05;;;8.68;;
18340;SDS011;9296;48.084;16.352;2023-05-07T13:26:44;11.50;;;7.93;;
18340;SDS011;9296;48.084;16.352;2023-05-07T13:29:11;8.77;;;7.82;;
18340;SDS011;9296;48.084;16.352;2023-05-07T13:35:00;11.38;;;8.38;;
18340;SDS011;9296;48.084;16.352;2023-05-07T13:37:28;8.50;;;7.43;;
18340;SDS011;9296;48.084;16.352;2023-05-07T13:39:55;11.45;;;7.88;;
18340;SDS011;9296;48.084;16.352;2023-05-07T13:42:24;8.40;;;6.93;;
18340;SDS011;9296;48.084;16.352;2023-05-07T13:44:51;7.68;;;6.82;;
18340;SDS011;9296;48.084;16.352;2023-05-07T13:50:06;6.75;;;6.05;;
18340;SDS011;9296;48.084;16.352;2023-05-07T13:52:33;7.22;;;6.47;;
18340;SDS011;9296;48.084;16.352;2023-05-07T13:55:00;9.45;;;7.07;;
18340;SDS011;9296;48.084;16.352;2023-05-07T13:57:29;7.13;;;6.43;;
18340;SDS011;9296;48.084;16.352;2023-05-07T13:59:56;7.35;;;6.65;;
18340;SDS011;9296;48.084;16.352;2023-05-07T14:05:10;7.03;;;6.03;;
18340;SDS011;9296;48.084;16.352;2023-05-07T14:07:38;7.38;;;6.38;;
18340;SDS011;9296;48.084;16.352;2023-05-07T14:10:05;7.13;;;6.25;;
18340;SDS011;9296;48.084;16.352;2023-05-07T14:12:34;7.63;;;6.18;;
18340;SDS011;9296;48.084;16.352;2023-05-07T14:15:02;5.72;;;5.15;;
18340;SDS011;9296;48.084;16.352;2023-05-07T14:20:15;7.40;;;5.93;;
18340;SDS011;9296;48.084;16.352;2023-05-07T14:22:42;6.63;;;5.93;;
18340;SDS011;9296;48.084;16.352;2023-05-07T14:25:10;6.53;;;5.70;;
18340;SDS011;9296;48.084;16.352;2023-05-07T14:27:39;5.78;;;5.20;;
18340;SDS011;9296;48.084;16.352;2023-05-07T14:30:06;6.22;;;5.60;;
18340;SDS011;9296;48.084;16.352;2023-05-07T14:38:29;8.23;;;5.88;;
18340;SDS011;9296;48.084;16.352;2023-05-07T14:40:58;6.53;;;5.70;;
18340;SDS011;9296;48.084;16.352;2023-05-07T14:43:27;7.13;;;6.10;;
18340;SDS011;9296;48.084;16.352;2023-05-07T14:45:54;6.65;;;5.57;;
18340;SDS011;9296;48.084;16.352;2023-05-07T14:48:21;6.35;;;5.65;;
18340;SDS011;9296;48.084;16.352;2023-05-07T14:50:48;7.55;;;5.43;;
18340;SDS011;9296;48.084;16.352;2023-05-07T14:53:15;7.35;;;5.47;;
18340;SDS011;9296;48.084;16.352;2023-05-07T14:55:43;5.90;;;5.30;;
18340;SDS011;9296;48.084;16.352;2023-05-07T14:58:10;5.78;;;4.97;;
18340;SDS011;9296;48.084;16.352;2023-05-07T15:00:39;5.88;;;5.25;;
18340;SDS011;9296;48.084;16.352;2023-05-07T15:03:07;6.13;;;4.43;;
18340;SDS011;9296;48.084;16.352;2023-05-07T15:05:34;5.10;;;4.60;;
18340;SDS011;9296;48.084;16.352;2023-05-07T15:08:02;4.88;;;4.40;;
18340;SDS011;9296;48.084;16.352;2023-05-07T15:10:29;4.53;;;3.92;;
18340;SDS011;9296;48.084;16.352;2023-05-07T15:12:56;4.90;;;4.20;;
18340;SDS011;9296;48.084;16.352;2023-05-07T15:15:23;4.57;;;4.10;;
18340;SDS011;9296;48.084;16.352;2023-05-07T15:17:52;5.60;;;4.32;;
18340;SDS011;9296;48.084;16.352;2023-05-07T15:20:19;4.80;;;4.30;;
18340;SDS011;9296;48.084;16.352;2023-05-07T15:22:47;4.95;;;4.18;;
18340;SDS011;9296;48.084;16.352;2023-05-07T15:25:14;5.40;;;4.25;;
18340;SDS011;9296;48.084;16.352;2023-05-07T15:27:41;5.50;;;4.20;;
18340;SDS011;9296;48.084;16.352;2023-05-07T15:30:08;4.20;;;3.78;;
18340;SDS011;9296;48.084;16.352;2023-05-07T15:32:36;4.28;;;3.67;;
18340;SDS011;9296;48.084;16.352;2023-05-07T15:35:06;4.03;;;3.63;;
18340;SDS011;9296;48.084;16.352;2023-05-07T15:37:33;4.00;;;3.70;;
18340;SDS011;9296;48.084;16.352;2023-05-07T15:40:00;4.00;;;3.60;;
18340;SDS011;9296;48.084;16.352;2023-05-07T15:42:30;4.38;;;3.95;;
18340;SDS011;9296;48.084;16.352;2023-05-07T15:44:57;4.03;;;3.63;;
18340;SDS011;9296;48.084;16.352;2023-05-07T15:47:25;4.57;;;3.90;;
18340;SDS011;9296;48.084;16.352;2023-05-07T15:49:52;4.65;;;3.90;;
18340;SDS011;9296;48.084;16.352;2023-05-07T15:52:21;3.85;;;3.53;;
18340;SDS011;9296;48.084;16.352;2023-05-07T15:54:49;4.88;;;3.60;;
18340;SDS011;9296;48.084;16.352;2023-05-07T15:57:16;4.03;;;3.63;;
18340;SDS011;9296;48.084;16.352;2023-05-07T15:59:43;3.90;;;3.50;;
18340;SDS011;9296;48.084;16.352;2023-05-07T16:02:10;3.95;;;3.65;;
18340;SDS011;9296;48.084;16.352;2023-05-07T16:04:38;4.05;;;3.50;;
18340;SDS011;9296;48.084;16.352;2023-05-07T16:07:06;4.10;;;3.70;;
18340;SDS011;9296;48.084;16.352;2023-05-07T16:09:34;3.83;;;3.50;;
18340;SDS011;9296;48.084;16.352;2023-05-07T16:12:01;4.78;;;4.28;;
18340;SDS011;9296;48.084;16.352;2023-05-07T16:14:29;4.03;;;3.63;;
18340;SDS011;9296;48.084;16.352;2023-05-07T16:16:56;6.28;;;3.90;;
18340;SDS011;9296;48.084;16.352;2023-05-07T16:19:23;4.28;;;3.80;;
18340;SDS011;9296;48.084;16.352;2023-05-07T16:21:50;5.68;;;3.95;;
18340;SDS011;9296;48.084;16.352;2023-05-07T16:24:18;5.53;;;3.92;;
18340;SDS011;9296;48.084;16.352;2023-05-07T16:26:46;4.07;;;3.67;;
18340;SDS011;9296;48.084;16.352;2023-05-07T16:29:14;4.65;;;3.90;;